Time;durP1;ratioP1;P1;durP2;ratioP2;P2;SDS_P1;SDS_P2;PMS_P1;PMS_P2;Temp;Humidity;BMP_temperature;BMP_pressure;BME280_temperature;BME280_humidity;BME280_pressure;Samples;Min_cycle;Max_cycle;Signal;HPM_P1;HPM_P2
2021/09/16 00:00:55;;;;;;;0.65;0.52;;;19.10;99.90;;;;;;4413663;32;20073;-74
2021/09/16 00:03:20;;;;;;;0.50;0.50;;;19.10;99.90;;;;;;4414512;32;20117;-74
2021/09/16 00:05:46;;;;;;;4.03;1.73;;;19.10;99.90;;;;;;4414451;32;20121;-75
2021/09/16 00:08:11;;;;;;;0.60;0.60;;;19.10;99.90;;;;;;4415197;32;20115;-74
2021/09/16 00:10:37;;;;;;;4.25;0.60;;;19.10;99.90;;;;;;4414267;32;20074;-74
2021/09/16 00:13:02;;;;;;;9.43;1.67;;;19.10;99.90;;;;;;4414480;32;20506;-74
2021/09/16 00:15:28;;;;;;;1.25;0.70;;;19.10;99.90;;;;;;4414208;32;20085;-74
2021/09/16 00:17:53;;;;;;;0.80;0.57;;;19.10;99.90;;;;;;4414726;32;20491;-74
2021/09/16 00:20:19;;;;;;;2.30;0.77;;;19.10;99.90;;;;;;4414097;32;20061;-74
2021/09/16 00:22:44;;;;;;;1.37;0.70;;;19.10;99.90;;;;;;4415029;32;20065;-74
2021/09/16 00:25:10;;;;;;;0.50;0.50;;;19.10;99.90;;;;;;4415132;32;20510;-75
2021/09/16 00:27:36;;;;;;;1.92;1.37;;;19.10;99.90;;;;;;4418935;32;20062;-75
2021/09/16 00:30:03;;;;;;;0.75;0.70;;;19.10;99.90;;;;;;4430736;32;20065;-75
2021/09/16 00:32:28;;;;;;;1.42;0.82;;;19.10;99.90;;;;;;4429629;32;20058;-75
2021/09/16 00:34:53;;;;;;;2.42;1.35;;;19.10;99.90;;;;;;4430039;32;20380;-75
2021/09/16 00:37:19;;;;;;;1.52;0.75;;;19.00;99.90;;;;;;4414593;32;20054;-75
2021/09/16 00:39:44;;;;;;;0.52;0.47;;;19.10;99.90;;;;;;4414555;32;20086;-76
2021/09/16 00:42:15;;;;;;;0.62;0.62;;;19.00;99.90;;;;;;4413832;32;20409;-75
2021/09/16 00:44:41;;;;;;;0.98;0.65;;;19.00;99.90;;;;;;4413802;32;20123;-76
2021/09/16 00:47:07;;;;;;;0.57;0.57;;;19.00;99.90;;;;;;4414272;32;20112;-74
2021/09/16 00:49:32;;;;;;;0.57;0.45;;;18.90;99.90;;;;;;4414842;32;20600;-75
2021/09/16 00:51:58;;;;;;;0.50;0.50;;;18.90;99.90;;;;;;4413951;32;20069;-74
2021/09/16 00:54:26;;;;;;;0.47;0.47;;;18.90;99.90;;;;;;4414131;32;20519;-74
2021/09/16 00:56:53;;;;;;;0.35;0.35;;;18.90;99.90;;;;;;4413570;32;20058;-74
2021/09/16 00:59:21;;;;;;;0.37;0.37;;;19.00;99.90;;;;;;4412550;32;20515;-73
2021/09/16 01:01:47;;;;;;;0.47;0.47;;;18.90;99.90;;;;;;4413038;32;20078;-76
2021/09/16 01:04:12;;;;;;;1.50;0.80;;;19.00;99.90;;;;;;4414021;32;20057;-75
2021/09/16 01:06:38;;;;;;;1.67;0.80;;;18.90;99.90;;;;;;4415172;32;20109;-75
2021/09/16 01:09:03;;;;;;;0.80;0.52;;;18.90;99.90;;;;;;4413706;32;20112;-75
2021/09/16 01:11:29;;;;;;;3.80;0.82;;;18.90;99.90;;;;;;4399780;32;20073;-75
2021/09/16 01:13:56;;;;;;;0.45;0.45;;;18.90;99.90;;;;;;4414279;32;20057;-75
2021/09/16 01:16:22;;;;;;;0.40;0.40;;;18.90;99.90;;;;;;4413885;32;20070;-75
2021/09/16 01:18:47;;;;;;;0.43;0.40;;;18.90;99.90;;;;;;4413945;32;20058;-74
2021/09/16 01:21:13;;;;;;;4.35;1.05;;;18.90;99.90;;;;;;4414353;32;20077;-74
2021/09/16 01:23:39;;;;;;;0.55;0.55;;;18.90;99.90;;;;;;4414393;32;20074;-74
2021/09/16 01:26:05;;;;;;;1.02;0.98;;;18.90;99.90;;;;;;4414401;32;20634;-74
2021/09/16 01:28:30;;;;;;;0.50;0.50;;;18.90;99.90;;;;;;4424008;32;20066;-74
2021/09/16 01:30:56;;;;;;;0.50;0.50;;;18.90;99.90;;;;;;4429168;32;20068;-75
2021/09/16 01:33:21;;;;;;;1.73;0.73;;;18.90;99.90;;;;;;4428358;32;20077;-75
2021/09/16 01:35:47;;;;;;;1.33;0.57;;;18.90;99.90;;;;;;4423311;32;20082;-76
2021/09/16 01:38:12;;;;;;;0.88;0.65;;;18.90;99.90;;;;;;4413806;32;20073;-75
2021/09/16 01:40:38;;;;;;;2.97;0.73;;;18.90;99.90;;;;;;4413058;32;20069;-74
2021/09/16 01:43:03;;;;;;;0.52;0.52;;;18.90;99.90;;;;;;4413002;32;20058;-75
2021/09/16 01:45:29;;;;;;;0.30;0.30;;;18.80;99.90;;;;;;4413899;32;20073;-75
2021/09/16 01:47:55;;;;;;;0.55;0.50;;;18.80;99.90;;;;;;4413399;32;20409;-75
2021/09/16 01:50:23;;;;;;;0.55;0.55;;;18.80;99.90;;;;;;4413286;32;20073;-75
2021/09/16 01:52:49;;;;;;;1.85;0.95;;;18.80;99.90;;;;;;4413602;32;20069;-75
2021/09/16 01:55:16;;;;;;;0.32;0.32;;;18.80;99.90;;;;;;4414635;32;20490;-75
2021/09/16 01:57:41;;;;;;;1.25;0.50;;;18.80;99.90;;;;;;4415724;32;20066;-76
2021/09/16 02:00:09;;;;;;;0.40;0.40;;;18.80;99.90;;;;;;4416087;32;20065;-74
2021/09/16 02:02:34;;;;;;;0.50;0.50;;;18.80;99.90;;;;;;4416384;32;20075;-74
2021/09/16 02:05:00;;;;;;;2.83;1.10;;;18.70;99.90;;;;;;4416243;32;20061;-74
2021/09/16 02:07:26;;;;;;;0.40;0.40;;;18.70;99.90;;;;;;4416335;32;20074;-74
2021/09/16 02:09:52;;;;;;;0.77;0.77;;;18.60;99.90;;;;;;4416122;32;20069;-74
2021/09/16 02:12:17;;;;;;;3.85;1.10;;;18.70;99.90;;;;;;4414931;32;20077;-75
2021/09/16 02:14:43;;;;;;;5.43;1.25;;;18.60;99.90;;;;;;4416007;32;20566;-74
2021/09/16 02:17:08;;;;;;;1.77;1.05;;;18.60;99.90;;;;;;4415906;32;20073;-75
2021/09/16 02:19:34;;;;;;;2.53;0.73;;;18.60;99.90;;;;;;4415913;32;20058;-75
2021/09/16 02:21:59;;;;;;;0.40;0.40;;;18.70;99.90;;;;;;4415436;32;20062;-75
2021/09/16 02:24:25;;;;;;;0.80;0.80;;;18.70;99.90;;;;;;4415619;32;20083;-75
2021/09/16 02:26:50;;;;;;;0.95;0.82;;;18.60;99.90;;;;;;4416709;32;20124;-75
2021/09/16 02:29:16;;;;;;;1.20;0.90;;;18.60;99.90;;;;;;4430345;32;20164;-75
2021/09/16 02:31:41;;;;;;;2.80;1.02;;;18.60;99.90;;;;;;4430810;32;20401;-75
2021/09/16 02:34:07;;;;;;;3.00;1.62;;;18.60;99.90;;;;;;4430749;32;20061;-76
2021/09/16 02:36:32;;;;;;;0.80;0.80;;;18.50;99.90;;;;;;4420718;32;20070;-74
2021/09/16 02:38:58;;;;;;;2.47;0.85;;;18.50;99.90;;;;;;4416170;32;20074;-74
2021/09/16 02:41:25;;;;;;;1.02;0.93;;;18.50;99.90;;;;;;4415172;32;20069;-74
2021/09/16 02:43:50;;;;;;;0.57;0.50;;;18.50;99.90;;;;;;4416584;32;20410;-74
2021/09/16 02:46:16;;;;;;;0.80;0.75;;;18.40;99.90;;;;;;4415771;32;20082;-75
2021/09/16 02:48:41;;;;;;;0.73;0.50;;;18.50;99.90;;;;;;4416686;32;20144;-75
2021/09/16 02:51:07;;;;;;;0.82;0.57;;;18.50;99.90;;;;;;4415555;32;20534;-74
2021/09/16 02:53:33;;;;;;;1.42;0.55;;;18.40;99.90;;;;;;4415777;32;20083;-75
2021/09/16 02:55:59;;;;;;;0.85;0.73;;;18.40;99.90;;;;;;4415877;32;20070;-74
2021/09/16 02:58:24;;;;;;;5.78;1.52;;;18.40;99.90;;;;;;4415148;32;20061;-74
2021/09/16 03:00:50;;;;;;;5.22;0.85;;;18.40;99.90;;;;;;4415705;32;20416;-74
2021/09/16 03:03:15;;;;;;;16.55;1.33;;;18.40;99.90;;;;;;4416170;32;20136;-75
2021/09/16 03:05:41;;;;;;;2.70;1.00;;;18.40;99.90;;;;;;4416268;32;20058;-75
2021/09/16 03:08:07;;;;;;;1.92;0.93;;;18.40;99.90;;;;;;4415264;32;20120;-74
2021/09/16 03:10:32;;;;;;;0.80;0.80;;;18.40;99.90;;;;;;4415754;32;20588;-74
2021/09/16 03:12:58;;;;;;;2.60;0.70;;;18.30;99.90;;;;;;4416176;32;20073;-75
2021/09/16 03:15:23;;;;;;;0.60;0.60;;;18.30;99.90;;;;;;4415541;32;20062;-74
2021/09/16 03:17:49;;;;;;;15.90;2.78;;;18.30;99.90;;;;;;4415267;32;20084;-74
2021/09/16 03:20:14;;;;;;;1.12;1.00;;;18.30;99.90;;;;;;4414824;32;20069;-74
2021/09/16 03:22:40;;;;;;;0.50;0.50;;;18.30;99.90;;;;;;4415733;32;20066;-75
2021/09/16 03:25:07;;;;;;;12.70;1.25;;;18.30;99.90;;;;;;4415318;32;20070;-75
2021/09/16 03:27:33;;;;;;;1.00;0.85;;;18.30;99.90;;;;;;4419645;32;20065;-75
2021/09/16 03:29:58;;;;;;;0.70;0.70;;;18.30;99.90;;;;;;4431601;32;20073;-74
2021/09/16 03:32:24;;;;;;;2.42;1.60;;;18.30;99.90;;;;;;4431084;32;20141;-75
2021/09/16 03:34:49;;;;;;;2.42;0.98;;;18.30;99.90;;;;;;4430819;32;20073;-75
2021/09/16 03:37:15;;;;;;;0.82;0.60;;;18.30;99.90;;;;;;4415198;32;20061;-74
2021/09/16 03:39:40;;;;;;;0.62;0.60;;;18.30;99.90;;;;;;4416000;32;20146;-74
2021/09/16 03:42:06;;;;;;;3.75;1.20;;;18.30;99.90;;;;;;4414987;32;20518;-74
2021/09/16 03:44:31;;;;;;;2.47;1.05;;;18.30;99.90;;;;;;4416257;32;20070;-75
2021/09/16 03:46:57;;;;;;;1.37;0.82;;;18.30;99.90;;;;;;4414868;32;20077;-74
2021/09/16 03:49:22;;;;;;;2.70;0.90;;;18.30;99.90;;;;;;4414718;32;20082;-74
2021/09/16 03:51:48;;;;;;;3.22;1.08;;;18.30;99.90;;;;;;4416296;32;20062;-73
2021/09/16 03:54:13;;;;;;;2.17;0.85;;;18.30;99.90;;;;;;4414521;32;20397;-75
2021/09/16 03:56:39;;;;;;;1.23;0.95;;;18.30;99.90;;;;;;4415046;32;20074;-75
2021/09/16 03:59:05;;;;;;;0.88;0.80;;;18.30;99.90;;;;;;4414335;32;20069;-74
2021/09/16 04:01:30;;;;;;;18.83;2.17;;;18.30;99.90;;;;;;4414158;32;20062;-75
2021/09/16 04:03:56;;;;;;;0.70;0.70;;;18.30;99.90;;;;;;4414929;32;20074;-75
2021/09/16 04:06:21;;;;;;;0.98;0.80;;;18.30;99.90;;;;;;4414585;32;20065;-75
2021/09/16 04:08:46;;;;;;;3.47;1.10;;;18.30;99.90;;;;;;4414945;32;20082;-75
2021/09/16 04:11:12;;;;;;;0.73;0.70;;;18.30;99.90;;;;;;4414063;32;20405;-75
2021/09/16 04:13:37;;;;;;;4.00;1.25;;;18.30;99.90;;;;;;4414666;32;20067;-75
2021/09/16 04:16:03;;;;;;;2.60;1.20;;;18.30;99.90;;;;;;4414358;32;20078;-75
2021/09/16 04:18:29;;;;;;;1.02;0.80;;;18.30;99.90;;;;;;4414899;32;20053;-74
2021/09/16 04:20:54;;;;;;;8.00;1.12;;;18.30;99.90;;;;;;4411918;32;20073;-74
2021/09/16 04:23:20;;;;;;;1.23;1.12;;;18.30;99.90;;;;;;4408758;32;20089;-74
2021/09/16 04:25:45;;;;;;;0.88;0.88;;;18.30;99.90;;;;;;4411224;32;20523;-74
2021/09/16 04:28:11;;;;;;;5.22;1.12;;;18.30;99.90;;;;;;4419205;32;20053;-75
2021/09/16 04:30:36;;;;;;;1.30;1.10;;;18.30;99.90;;;;;;4428866;32;20083;-74
2021/09/16 04:33:02;;;;;;;0.60;0.60;;;18.20;99.90;;;;;;4430803;32;20069;-74
2021/09/16 04:35:27;;;;;;;2.22;1.10;;;18.20;99.90;;;;;;4425859;32;20591;-75
2021/09/16 04:37:53;;;;;;;3.30;0.98;;;18.20;99.90;;;;;;4413864;32;20083;-75
2021/09/16 04:40:19;;;;;;;1.45;0.80;;;18.20;99.90;;;;;;4420230;32;20090;-74
2021/09/16 04:42:45;;;;;;;0.57;0.57;;;18.10;99.90;;;;;;4430258;32;20066;-74
2021/09/16 04:45:10;;;;;;;2.45;0.95;;;18.10;99.90;;;;;;4429512;32;20069;-75
2021/09/16 04:47:39;;;;;;;0.50;0.50;;;18.10;99.90;;;;;;4429582;32;20120;-74
2021/09/16 04:50:08;;;;;;;1.65;1.17;;;18.00;99.90;;;;;;4429765;32;20061;-74
2021/09/16 04:52:34;;;;;;;0.62;0.50;;;18.00;99.90;;;;;;4426040;32;20070;-75
2021/09/16 04:54:59;;;;;;;0.75;0.75;;;18.00;99.90;;;;;;4413637;32;20061;-74
2021/09/16 04:57:25;;;;;;;2.78;0.93;;;18.00;99.90;;;;;;4413345;32;20069;-74
2021/09/16 04:59:53;;;;;;;2.03;0.88;;;18.00;99.90;;;;;;4412608;32;20081;-74
2021/09/16 05:02:19;;;;;;;1.40;1.27;;;17.90;99.90;;;;;;4403804;32;20062;-74
2021/09/16 05:04:44;;;;;;;0.95;0.80;;;18.00;99.90;;;;;;4408379;32;20535;-74
2021/09/16 05:07:10;;;;;;;2.90;0.70;;;18.00;99.90;;;;;;4413148;32;20069;-74
2021/09/16 05:09:36;;;;;;;1.33;0.80;;;18.00;99.90;;;;;;4407441;32;20550;-74
2021/09/16 05:12:02;;;;;;;1.42;0.77;;;18.00;99.90;;;;;;4405026;32;20074;-74
2021/09/16 05:14:27;;;;;;;7.90;0.98;;;17.90;99.90;;;;;;4410275;32;20066;-74
2021/09/16 05:16:53;;;;;;;0.55;0.55;;;17.90;99.90;;;;;;4399546;32;20085;-74
2021/09/16 05:19:19;;;;;;;1.40;0.40;;;17.90;99.90;;;;;;4404813;32;20447;-75
2021/09/16 05:21:45;;;;;;;1.30;1.17;;;17.90;99.90;;;;;;4411081;32;20058;-74
2021/09/16 05:24:16;;;;;;;0.73;0.73;;;17.80;99.90;;;;;;4412133;32;20093;-75
2021/09/16 05:26:42;;;;;;;4.43;1.00;;;17.90;99.90;;;;;;4398227;32;20066;-74
2021/09/16 05:29:08;;;;;;;3.40;0.85;;;17.80;99.90;;;;;;4404263;32;20145;-74
2021/09/16 05:31:33;;;;;;;1.05;0.68;;;17.80;99.90;;;;;;4386524;32;20420;-74
2021/09/16 05:33:59;;;;;;;0.62;0.62;;;17.80;99.90;;;;;;4410295;32;20069;-74
2021/09/16 05:36:24;;;;;;;0.70;0.50;;;17.80;99.90;;;;;;4409772;32;20062;-74
2021/09/16 05:38:50;;;;;;;0.47;0.43;;;17.80;99.90;;;;;;4408599;32;20585;-75
2021/09/16 05:41:16;;;;;;;3.75;1.48;;;17.70;99.90;;;;;;4410119;32;20091;-75
2021/09/16 05:43:41;;;;;;;0.43;0.43;;;17.70;99.90;;;;;;4402342;32;20066;-75
2021/09/16 05:46:07;;;;;;;0.70;0.70;;;17.70;99.90;;;;;;4410144;32;20570;-75
2021/09/16 05:48:32;;;;;;;0.60;0.60;;;17.60;99.90;;;;;;4408410;32;20066;-75
2021/09/16 05:50:58;;;;;;;0.52;0.52;;;17.60;99.90;;;;;;4410161;32;20066;-75
2021/09/16 05:53:23;;;;;;;0.60;0.60;;;17.50;99.90;;;;;;4403416;32;20085;-76
2021/09/16 05:55:49;;;;;;;0.52;0.52;;;17.50;99.90;;;;;;4400799;32;20155;-75
2021/09/16 05:58:14;;;;;;;0.57;0.57;;;17.50;99.90;;;;;;4400386;32;20066;-75
2021/09/16 06:00:40;;;;;;;0.55;0.55;;;17.50;99.90;;;;;;4404705;32;21199;-75
2021/09/16 06:03:05;;;;;;;0.95;0.60;;;17.50;99.90;;;;;;4400046;32;20553;-75
2021/09/16 06:05:31;;;;;;;0.40;0.40;;;17.40;99.90;;;;;;4402152;32;20413;-76
2021/09/16 06:07:56;;;;;;;0.77;0.70;;;17.50;99.90;;;;;;4402454;32;20094;-75
2021/09/16 06:10:22;;;;;;;0.50;0.50;;;17.50;99.90;;;;;;4403783;32;20413;-75
2021/09/16 06:12:47;;;;;;;3.45;1.27;;;17.40;99.90;;;;;;4403956;32;20085;-75
2021/09/16 06:15:13;;;;;;;0.43;0.43;;;17.40;99.90;;;;;;4406285;32;20425;-74
2021/09/16 06:17:38;;;;;;;0.57;0.57;;;17.40;99.90;;;;;;4407092;32;20094;-75
2021/09/16 06:20:06;;;;;;;0.52;0.52;;;17.50;99.90;;;;;;4400286;32;20871;-75
2021/09/16 06:22:32;;;;;;;0.37;0.37;;;17.50;99.90;;;;;;4404632;32;20124;-75
2021/09/16 06:24:57;;;;;;;0.43;0.43;;;17.50;99.90;;;;;;4400180;32;80156;-75
2021/09/16 06:27:23;;;;;;;0.88;0.70;;;17.50;99.90;;;;;;4405002;32;22002;-75
2021/09/16 06:29:48;;;;;;;0.40;0.40;;;17.60;99.90;;;;;;4406790;32;20098;-75
2021/09/16 06:32:14;;;;;;;0.57;0.57;;;17.60;99.90;;;;;;4404057;32;20126;-75
2021/09/16 06:34:39;;;;;;;0.68;0.68;;;17.60;99.90;;;;;;4404783;32;20413;-75
2021/09/16 06:37:05;;;;;;;1.37;0.82;;;17.60;99.90;;;;;;4403647;32;20085;-75
2021/09/16 06:39:31;;;;;;;0.85;0.60;;;17.60;99.90;;;;;;4407588;32;20161;-75
2021/09/16 06:41:56;;;;;;;0.85;0.55;;;17.60;99.90;;;;;;4404987;32;20081;-76
2021/09/16 06:44:22;;;;;;;0.57;0.57;;;17.60;99.90;;;;;;4398074;32;20711;-76
2021/09/16 06:46:47;;;;;;;0.45;0.45;;;17.60;99.90;;;;;;4401271;32;20117;-76
2021/09/16 06:49:13;;;;;;;0.40;0.40;;;17.50;99.90;;;;;;4402058;32;20077;-75
2021/09/16 06:51:38;;;;;;;0.57;0.50;;;17.50;99.90;;;;;;4403076;32;20466;-75
2021/09/16 06:54:04;;;;;;;0.57;0.50;;;17.50;99.90;;;;;;4405300;32;20168;-75
2021/09/16 06:56:29;;;;;;;0.43;0.43;;;17.60;99.90;;;;;;4405270;32;20081;-74
2021/09/16 06:58:56;;;;;;;3.37;0.73;;;17.60;99.90;;;;;;4406003;32;20071;-74
2021/09/16 07:01:23;;;;;;;0.50;0.50;;;17.60;99.90;;;;;;4401757;32;20065;-76
2021/09/16 07:03:51;;;;;;;0.50;0.50;;;17.70;99.90;;;;;;4403464;32;20078;-75
2021/09/16 07:06:17;;;;;;;0.50;0.50;;;17.70;99.90;;;;;;4403747;32;20090;-75
2021/09/16 07:08:42;;;;;;;1.05;0.50;;;17.70;99.90;;;;;;4403041;32;20078;-75
2021/09/16 07:11:08;;;;;;;2.42;0.62;;;17.60;99.90;;;;;;4406375;32;20062;-74
2021/09/16 07:13:33;;;;;;;1.15;0.47;;;17.50;99.90;;;;;;4408961;32;20125;-75
2021/09/16 07:15:59;;;;;;;0.30;0.30;;;17.50;99.90;;;;;;4404845;32;20073;-74
2021/09/16 07:18:24;;;;;;;0.40;0.40;;;17.50;99.90;;;;;;4407551;32;20154;-76
2021/09/16 07:20:50;;;;;;;1.58;1.02;;;17.50;99.90;;;;;;4400972;32;20113;-75
2021/09/16 07:23:15;;;;;;;2.37;0.62;;;17.50;99.90;;;;;;4401819;32;20308;-76
2021/09/16 07:25:41;;;;;;;2.95;0.45;;;17.50;99.90;;;;;;4408991;32;21117;-76
2021/09/16 07:28:07;;;;;;;0.30;0.30;;;17.60;99.90;;;;;;4406654;32;20102;-75
2021/09/16 07:30:32;;;;;;;0.88;0.88;;;17.60;99.90;;;;;;4402696;32;20073;-75
2021/09/16 07:32:58;;;;;;;1.23;0.40;;;17.70;99.90;;;;;;4398989;32;20315;-75
2021/09/16 07:35:23;;;;;;;0.60;0.57;;;17.80;99.90;;;;;;4405739;32;20599;-75
2021/09/16 07:37:49;;;;;;;0.30;0.30;;;17.70;99.90;;;;;;4402844;32;20058;-75
2021/09/16 07:40:14;;;;;;;0.52;0.40;;;17.80;99.90;;;;;;4406539;32;20061;-75
2021/09/16 07:42:40;;;;;;;0.40;0.40;;;17.80;99.90;;;;;;4405474;32;20417;-75
2021/09/16 07:45:07;;;;;;;0.32;0.32;;;17.80;99.90;;;;;;4401772;32;20073;-75
2021/09/16 07:47:32;;;;;;;3.92;1.23;;;17.70;99.90;;;;;;4406268;32;20469;-76
2021/09/16 07:49:58;;;;;;;0.25;0.25;;;17.70;99.90;;;;;;4404628;32;20085;-78
2021/09/16 07:52:23;;;;;;;0.37;0.37;;;17.70;99.90;;;;;;4403382;32;20403;-77
2021/09/16 07:54:49;;;;;;;0.43;0.43;;;17.70;99.90;;;;;;4401370;32;20101;-78
2021/09/16 07:57:14;;;;;;;0.47;0.47;;;17.80;99.90;;;;;;4409649;32;20070;-78
2021/09/16 07:59:40;;;;;;;0.30;0.30;;;18.00;99.90;;;;;;4406096;32;20066;-77
2021/09/16 08:02:06;;;;;;;0.30;0.30;;;18.30;99.90;;;;;;4409368;32;20073;-76
2021/09/16 08:04:33;;;;;;;0.20;0.20;;;18.50;99.90;;;;;;4408598;32;20069;-78
2021/09/16 08:06:58;;;;;;;0.30;0.30;;;18.60;99.90;;;;;;4406393;32;20121;-77
2021/09/16 08:09:25;;;;;;;0.30;0.30;;;18.70;99.90;;;;;;4407109;32;20069;-76
2021/09/16 08:11:50;;;;;;;0.30;0.30;;;18.70;99.90;;;;;;4406235;32;20069;-78
2021/09/16 08:14:16;;;;;;;0.20;0.20;;;18.70;99.90;;;;;;4406884;32;20086;-75
2021/09/16 08:16:41;;;;;;;0.37;0.35;;;18.60;99.90;;;;;;4405759;32;20078;-76
2021/09/16 08:19:07;;;;;;;0.30;0.30;;;18.50;99.90;;;;;;4404995;32;20168;-77
2021/09/16 08:21:34;;;;;;;1.95;0.60;;;18.50;99.90;;;;;;4404943;32;20082;-77
2021/09/16 08:24:00;;;;;;;0.20;0.20;;;18.60;99.90;;;;;;4404112;32;20066;-77
2021/09/16 08:26:25;;;;;;;0.20;0.20;;;18.70;99.90;;;;;;4411027;32;20413;-77
2021/09/16 08:28:51;;;;;;;0.50;0.50;;;18.70;99.90;;;;;;4412245;32;20061;-78
2021/09/16 08:31:17;;;;;;;0.37;0.37;;;18.50;99.90;;;;;;4413650;32;20127;-78
2021/09/16 08:33:46;;;;;;;0.20;0.20;;;18.50;99.90;;;;;;4411767;32;20074;-78
2021/09/16 08:36:12;;;;;;;3.62;0.70;;;18.50;99.90;;;;;;4402424;32;20074;-76
2021/09/16 08:38:37;;;;;;;0.30;0.30;;;18.60;99.90;;;;;;4402480;32;20522;-75
2021/09/16 08:41:04;;;;;;;0.25;0.25;;;18.70;99.90;;;;;;4402770;32;20058;-76
2021/09/16 08:43:33;;;;;;;0.55;0.55;;;18.70;99.90;;;;;;4400904;32;20152;-74
2021/09/16 08:46:00;;;;;;;0.30;0.30;;;18.80;99.90;;;;;;4402349;32;20057;-76
2021/09/16 08:48:26;;;;;;;0.30;0.30;;;18.60;99.90;;;;;;4402238;32;20553;-74
2021/09/16 08:50:52;;;;;;;0.40;0.40;;;18.40;99.90;;;;;;4403049;32;20150;-76
2021/09/16 08:53:23;;;;;;;0.30;0.30;;;18.40;99.90;;;;;;4404319;32;20432;-76
2021/09/16 08:55:51;;;;;;;0.35;0.35;;;18.30;99.90;;;;;;4404331;32;20158;-76
2021/09/16 08:58:19;;;;;;;0.20;0.20;;;18.30;99.90;;;;;;4406830;32;20094;-75
2021/09/16 09:00:45;;;;;;;0.40;0.40;;;18.30;99.90;;;;;;4409950;32;20073;-76
2021/09/16 09:03:11;;;;;;;0.30;0.30;;;18.40;99.90;;;;;;4403806;32;20514;-76
2021/09/16 09:05:39;;;;;;;0.20;0.20;;;18.40;99.90;;;;;;4397742;32;20186;-76
2021/09/16 09:08:05;;;;;;;0.30;0.30;;;18.50;99.90;;;;;;4407016;32;20073;-76
2021/09/16 09:10:38;;;;;;;0.28;0.28;;;18.60;99.90;;;;;;4403758;32;20507;-78
2021/09/16 09:13:11;;;;;;;0.20;0.20;;;18.50;99.90;;;;;;4405166;32;20070;-77
2021/09/16 09:15:40;;;;;;;0.20;0.20;;;18.50;99.90;;;;;;4411251;32;20905;-77
2021/09/16 09:18:15;;;;;;;0.28;0.28;;;18.50;99.90;;;;;;4405118;32;20066;-75
2021/09/16 09:21:02;;;;;;;0.15;0.15;;;18.30;99.90;;;;;;4408436;32;20116;-74
2021/09/16 09:23:32;;;;;;;0.20;0.20;;;18.10;99.90;;;;;;4392572;32;20066;-74
2021/09/16 09:25:59;;;;;;;0.30;0.30;;;18.10;99.90;;;;;;4402795;32;20556;-75
2021/09/16 09:28:33;;;;;;;0.30;0.30;;;18.20;99.90;;;;;;4399555;32;20492;-75
2021/09/16 09:31:03;;;;;;;0.30;0.30;;;18.10;99.90;;;;;;4400834;32;20339;-76
2021/09/16 09:33:31;;;;;;;0.30;0.30;;;18.10;99.90;;;;;;4399493;32;20153;-76
2021/09/16 09:36:06;;;;;;;0.20;0.20;;;18.10;99.90;;;;;;4399464;32;20074;-76
2021/09/16 09:38:32;;;;;;;0.30;0.30;;;18.10;99.90;;;;;;4402285;32;20073;-75
2021/09/16 09:41:01;;;;;;;0.30;0.30;;;18.10;99.90;;;;;;4401208;32;20152;-75
2021/09/16 09:43:33;;;;;;;0.62;0.30;;;18.10;99.90;;;;;;4401251;32;20070;-75
2021/09/16 09:46:16;;;;;;;0.30;0.30;;;18.10;99.90;;;;;;4401243;32;20082;-75
2021/09/16 09:48:57;;;;;;;0.52;0.50;;;18.10;99.90;;;;;;4399361;32;20114;-75
2021/09/16 09:51:42;;;;;;;0.43;0.43;;;18.20;99.90;;;;;;4404298;32;20448;-76
2021/09/16 09:54:32;;;;;;;0.20;0.20;;;18.40;99.90;;;;;;4406468;32;20432;-75
2021/09/16 09:57:04;;;;;;;0.30;0.30;;;18.40;99.90;;;;;;4393673;32;20548;-75
2021/09/16 09:59:51;;;;;;;0.25;0.25;;;18.40;99.90;;;;;;4402732;32;20411;-76
2021/09/16 10:02:17;;;;;;;0.40;0.40;;;18.40;99.90;;;;;;4399628;32;20066;-76
2021/09/16 10:04:43;;;;;;;0.30;0.30;;;18.40;99.90;;;;;;4402800;32;20494;-76
2021/09/16 10:07:15;;;;;;;0.52;0.52;;;18.50;99.90;;;;;;4407116;32;20577;-76
2021/09/16 10:09:53;;;;;;;1.20;0.80;;;18.50;99.90;;;;;;4403290;32;20505;-75
2021/09/16 10:12:18;;;;;;;0.75;0.70;;;18.50;99.90;;;;;;4402533;32;20079;-77
2021/09/16 10:14:44;;;;;;;0.28;0.28;;;18.40;99.90;;;;;;4403480;32;20082;-76
2021/09/16 10:17:09;;;;;;;0.30;0.30;;;18.30;99.90;;;;;;4405587;32;20078;-76
2021/09/16 10:19:35;;;;;;;0.20;0.20;;;18.30;99.90;;;;;;4405382;32;20495;-76
2021/09/16 10:22:00;;;;;;;0.47;0.47;;;18.30;99.90;;;;;;4410714;32;20077;-76
2021/09/16 10:24:26;;;;;;;0.30;0.30;;;18.40;99.90;;;;;;4398944;32;20082;-76
2021/09/16 10:26:52;;;;;;;0.35;0.35;;;18.40;99.90;;;;;;4405147;32;20069;-76
2021/09/16 10:29:36;;;;;;;0.40;0.40;;;18.30;99.90;;;;;;4407837;32;20236;-76
2021/09/16 10:32:10;;;;;;;0.30;0.30;;;18.30;99.90;;;;;;4410072;32;20120;-78
2021/09/16 10:34:45;;;;;;;0.20;0.20;;;18.30;99.90;;;;;;4412599;32;20098;-77
2021/09/16 10:37:15;;;;;;;0.28;0.28;;;18.40;99.90;;;;;;4408791;32;20065;-77
2021/09/16 10:39:42;;;;;;;0.30;0.30;;;18.40;99.90;;;;;;4411184;32;20208;-77
2021/09/16 10:42:09;;;;;;;0.30;0.30;;;18.40;99.90;;;;;;4405835;32;20640;-76
2021/09/16 10:44:36;;;;;;;0.45;0.45;;;18.40;99.90;;;;;;4408748;32;20065;-76
2021/09/16 10:47:21;;;;;;;0.37;0.37;;;18.40;99.90;;;;;;4408323;32;20113;-77
2021/09/16 10:49:49;;;;;;;0.20;0.20;;;18.50;99.90;;;;;;4405295;32;20074;-77
2021/09/16 10:52:22;;;;;;;0.20;0.20;;;18.70;99.90;;;;;;4414044;32;20081;-78
2021/09/16 10:54:50;;;;;;;5.93;0.90;;;18.80;99.90;;;;;;4412710;32;20109;-78
2021/09/16 10:57:31;;;;;;;0.50;0.50;;;19.00;99.90;;;;;;4406046;32;20137;-77
2021/09/16 10:59:59;;;;;;;0.88;0.65;;;19.00;99.90;;;;;;4410134;32;20061;-78
2021/09/16 11:02:45;;;;;;;0.20;0.20;;;19.10;99.90;;;;;;4399245;32;20081;-77
2021/09/16 11:05:14;;;;;;;0.28;0.28;;;19.10;99.90;;;;;;4402773;32;20070;-78
2021/09/16 11:07:49;;;;;;;0.35;0.35;;;19.00;99.90;;;;;;4413968;32;20073;-77
2021/09/16 11:10:17;;;;;;;0.20;0.20;;;18.90;99.90;;;;;;4389588;32;20078;-76
2021/09/16 11:13:08;;;;;;;0.20;0.20;;;18.60;99.90;;;;;;4401859;32;20081;-76
2021/09/16 11:15:37;;;;;;;0.30;0.30;;;18.60;99.90;;;;;;4395932;32;20253;-75
2021/09/16 11:18:05;;;;;;;0.30;0.30;;;18.50;99.90;;;;;;4398630;32;20077;-75
2021/09/16 11:20:31;;;;;;;1.55;1.17;;;18.70;99.90;;;;;;4404242;32;20062;-75
2021/09/16 11:22:57;;;;;;;0.20;0.20;;;18.80;99.90;;;;;;4407192;32;20090;-77
2021/09/16 11:25:24;;;;;;;0.28;0.28;;;19.10;99.90;;;;;;4401970;32;20740;-77
2021/09/16 11:27:54;;;;;;;0.30;0.30;;;19.20;99.90;;;;;;4409739;32;20094;-77
2021/09/16 11:30:21;;;;;;;1.30;0.73;;;19.30;99.90;;;;;;4405900;32;20089;-77
2021/09/16 11:32:49;;;;;;;0.57;0.40;;;19.10;99.90;;;;;;4412826;32;20066;-77
2021/09/16 11:35:17;;;;;;;0.20;0.20;;;19.00;99.90;;;;;;4410963;32;20065;-78
2021/09/16 11:37:48;;;;;;;0.20;0.20;;;18.90;99.90;;;;;;4405059;32;20094;-78
2021/09/16 11:40:18;;;;;;;0.30;0.30;;;18.80;99.90;;;;;;4404374;32;20078;-79
2021/09/16 11:42:47;;;;;;;0.20;0.20;;;18.90;99.90;;;;;;4406792;32;20077;-78
2021/09/16 11:45:23;;;;;;;0.90;0.85;;;18.70;99.90;;;;;;4407026;32;20467;-77
2021/09/16 11:47:52;;;;;;;0.20;0.20;;;18.60;99.90;;;;;;4408683;32;20074;-77
2021/09/16 11:50:36;;;;;;;0.32;0.32;;;18.50;99.90;;;;;;4412224;32;20474;-78
2021/09/16 11:53:05;;;;;;;0.20;0.20;;;18.50;99.90;;;;;;4392740;32;20168;-78
2021/09/16 11:55:33;;;;;;;0.35;0.35;;;18.40;99.90;;;;;;4410931;32;20149;-77
2021/09/16 11:58:09;;;;;;;0.65;0.40;;;18.30;99.90;;;;;;4404570;32;20083;-78
2021/09/16 12:00:38;;;;;;;0.30;0.30;;;18.30;99.90;;;;;;4404064;32;20817;-78
2021/09/16 12:03:05;;;;;;;0.40;0.40;;;18.30;99.90;;;;;;4407478;32;20130;-78
2021/09/16 12:05:34;;;;;;;0.30;0.30;;;18.30;99.90;;;;;;4407279;32;20624;-77
2021/09/16 12:08:01;;;;;;;0.30;0.30;;;18.30;99.90;;;;;;4409512;32;20180;-78
2021/09/16 12:10:45;;;;;;;0.50;0.50;;;18.20;99.90;;;;;;4397978;32;20077;-76
2021/09/16 12:13:13;;;;;;;7.97;0.40;;;18.30;99.90;;;;;;4406163;32;20091;-77
2021/09/16 12:15:39;;;;;;;0.30;0.30;;;18.40;99.90;;;;;;4403216;32;20085;-74
2021/09/16 12:18:06;;;;;;;0.20;0.20;;;18.40;99.90;;;;;;4407323;32;20086;-73
2021/09/16 12:20:32;;;;;;;0.20;0.20;;;18.50;99.90;;;;;;4401334;32;20116;-73
2021/09/16 12:22:58;;;;;;;0.30;0.30;;;18.60;99.90;;;;;;4403622;32;20165;-73
2021/09/16 12:25:26;;;;;;;0.30;0.30;;;18.70;99.90;;;;;;4407335;32;20054;-73
2021/09/16 12:28:08;;;;;;;0.25;0.25;;;18.90;99.90;;;;;;4410048;32;20062;-74
2021/09/16 12:30:36;;;;;;;0.22;0.22;;;19.30;99.90;;;;;;4397402;32;21168;-73
2021/09/16 12:33:02;;;;;;;0.20;0.20;;;19.60;99.90;;;;;;4400045;32;20522;-73
2021/09/16 12:35:28;;;;;;;0.20;0.20;;;19.40;99.90;;;;;;4402731;32;20253;-75
2021/09/16 12:38:09;;;;;;;2.53;1.17;;;19.30;99.90;;;;;;4398033;32;20094;-75
2021/09/16 12:40:34;;;;;;;0.20;0.20;;;19.20;99.90;;;;;;4394609;32;20081;-73
2021/09/16 12:43:05;;;;;;;0.20;0.20;;;19.20;99.90;;;;;;4402853;32;20086;-75
2021/09/16 12:45:30;;;;;;;0.20;0.20;;;19.30;99.90;;;;;;4400862;32;20085;-73